Weather at San Diego International Airport

Public forecast

Using degrees Fahrenheit for public forecast. Weather courtesy of forecast.io.

Current aviation weather report (METAR) for San Diego International Airport

2023/02/02 16:51 (retrieved 46 minutes ago)

KSAN 021651Z 00000KT 10SM BKN250 13/M01 A3035 RMK AO2 SLP277 T01281006

Aviation forecast (TAF) for San Diego International Airport

2023/02/02 15:48 Ammendment (retrieved 2 hours ago)

TAF AMD KSAN 021444Z 0215/0318 VRB04KT P6SM SCT250 FM022000 28008KT P6SM SCT250 FM030100 VRB04KT P6SM BKN200